sensor_id;sensor_type;location;lat;lon;timestamp;temperature;humidity
31975;DHT22;18500;43.618;1.474;2022-10-18T05:47:06;18.30;1.00
31975;DHT22;18500;43.618;1.474;2022-10-18T05:49:32;18.40;1.00
31975;DHT22;18500;43.618;1.474;2022-10-18T05:51:58;18.40;1.00
31975;DHT22;18500;43.618;1.474;2022-10-18T05:54:23;18.40;1.00
31975;DHT22;18500;43.618;1.474;2022-10-18T05:56:49;18.50;1.00
31975;DHT22;18500;43.618;1.474;2022-10-18T05:59:15;18.40;1.00
31975;DHT22;18500;43.618;1.474;2022-10-18T06:01:41;18.30;1.00
31975;DHT22;18500;43.618;1.474;2022-10-18T06:04:08;18.40;1.00
31975;DHT22;18500;43.618;1.474;2022-10-18T06:06:37;18.30;1.00
31975;DHT22;18500;43.618;1.474;2022-10-18T06:09:03;18.30;1.00
31975;DHT22;18500;43.618;1.474;2022-10-18T06:11:30;18.40;1.00
31975;DHT22;18500;43.618;1.474;2022-10-18T06:13:56;18.30;1.00
31975;DHT22;18500;43.618;1.474;2022-10-18T06:16:25;18.40;1.00
31975;DHT22;18500;43.618;1.474;2022-10-18T06:18:55;18.60;1.00
31975;DHT22;18500;43.618;1.474;2022-10-18T06:21:22;18.50;1.00
31975;DHT22;18500;43.618;1.474;2022-10-18T06:23:53;18.50;1.00
31975;DHT22;18500;43.618;1.474;2022-10-18T06:26:19;18.50;1.00
31975;DHT22;18500;43.618;1.474;2022-10-18T06:28:45;18.60;1.00
31975;DHT22;18500;43.618;1.474;2022-10-18T06:31:12;18.60;1.00
31975;DHT22;18500;43.618;1.474;2022-10-18T06:33:38;18.60;1.00
31975;DHT22;18500;43.618;1.474;2022-10-18T06:36:06;18.60;1.00
31975;DHT22;18500;43.618;1.474;2022-10-18T06:38:32;18.70;1.00
31975;DHT22;18500;43.618;1.474;2022-10-18T06:40:58;18.80;1.00
31975;DHT22;18500;43.618;1.474;2022-10-18T06:43:24;18.80;1.00
31975;DHT22;18500;43.618;1.474;2022-10-18T06:45:51;18.80;1.00
31975;DHT22;18500;43.618;1.474;2022-10-18T06:48:17;18.80;1.00
31975;DHT22;18500;43.618;1.474;2022-10-18T06:50:53;18.80;1.00
31975;DHT22;18500;43.618;1.474;2022-10-18T06:53:19;18.90;1.00
31975;DHT22;18500;43.618;1.474;2022-10-18T06:55:45;18.80;1.00
31975;DHT22;18500;43.618;1.474;2022-10-18T06:58:11;18.90;1.00
31975;DHT22;18500;43.618;1.474;2022-10-18T07:00:37;19.10;1.00
31975;DHT22;18500;43.618;1.474;2022-10-18T07:03:03;19.10;1.00
31975;DHT22;18500;43.618;1.474;2022-10-18T07:05:30;19.00;1.00
31975;DHT22;18500;43.618;1.474;2022-10-18T07:07:56;19.10;1.00
31975;DHT22;18500;43.618;1.474;2022-10-18T07:10:22;19.10;1.00
31975;DHT22;18500;43.618;1.474;2022-10-18T07:12:48;19.20;1.00
31975;DHT22;18500;43.618;1.474;2022-10-18T07:15:13;19.20;1.00
31975;DHT22;18500;43.618;1.474;2022-10-18T07:17:39;19.20;1.00
31975;DHT22;18500;43.618;1.474;2022-10-18T07:20:06;19.30;1.00
31975;DHT22;18500;43.618;1.474;2022-10-18T07:22:32;19.30;1.00
31975;DHT22;18500;43.618;1.474;2022-10-18T07:24:58;19.40;1.00
31975;DHT22;18500;43.618;1.474;2022-10-18T07:27:24;19.40;1.00
31975;DHT22;18500;43.618;1.474;2022-10-18T07:29:49;19.50;1.00
31975;DHT22;18500;43.618;1.474;2022-10-18T07:32:15;19.40;1.00
31975;DHT22;18500;43.618;1.474;2022-10-18T07:34:41;19.50;1.00
31975;DHT22;18500;43.618;1.474;2022-10-18T07:37:06;19.60;1.00
31975;DHT22;18500;43.618;1.474;2022-10-18T07:39:32;19.60;1.00
31975;DHT22;18500;43.618;1.474;2022-10-18T07:41:58;19.60;1.00
31975;DHT22;18500;43.618;1.474;2022-10-18T07:44:23;19.70;1.00
31975;DHT22;18500;43.618;1.474;2022-10-18T07:46:49;19.70;1.00
31975;DHT22;18500;43.618;1.474;2022-10-18T07:49:14;19.80;1.00
31975;DHT22;18500;43.618;1.474;2022-10-18T07:51:42;19.90;1.00
31975;DHT22;18500;43.618;1.474;2022-10-18T07:54:08;19.90;1.00
31975;DHT22;18500;43.618;1.474;2022-10-18T07:56:34;20.00;1.00
31975;DHT22;18500;43.618;1.474;2022-10-18T07:58:59;20.10;1.00
31975;DHT22;18500;43.618;1.474;2022-10-18T08:01:25;20.10;1.00
31975;DHT22;18500;43.618;1.474;2022-10-18T08:03:51;20.20;1.00
31975;DHT22;18500;43.618;1.474;2022-10-18T08:06:18;20.20;1.00
31975;DHT22;18500;43.618;1.474;2022-10-18T08:08:44;20.30;1.00
31975;DHT22;18500;43.618;1.474;2022-10-18T08:11:13;20.40;1.00
31975;DHT22;18500;43.618;1.474;2022-10-18T08:13:40;20.40;1.00
31975;DHT22;18500;43.618;1.474;2022-10-18T08:16:08;20.50;1.00
31975;DHT22;18500;43.618;1.474;2022-10-18T08:18:34;20.60;1.00
31975;DHT22;18500;43.618;1.474;2022-10-18T08:21:01;20.50;1.00
31975;DHT22;18500;43.618;1.474;2022-10-18T08:23:28;20.60;1.00
31975;DHT22;18500;43.618;1.474;2022-10-18T08:25:53;20.60;1.00
31975;DHT22;18500;43.618;1.474;2022-10-18T08:28:19;20.70;1.00
31975;DHT22;18500;43.618;1.474;2022-10-18T08:30:45;20.80;1.00
31975;DHT22;18500;43.618;1.474;2022-10-18T08:33:10;20.90;1.00
31975;DHT22;18500;43.618;1.474;2022-10-18T08:35:36;20.90;1.00
31975;DHT22;18500;43.618;1.474;2022-10-18T08:38:02;20.90;1.00
31975;DHT22;18500;43.618;1.474;2022-10-18T08:40:28;20.90;1.00
31975;DHT22;18500;43.618;1.474;2022-10-18T08:45:45;21.20;1.00
31975;DHT22;18500;43.618;1.474;2022-10-18T08:48:38;21.30;1.00
31975;DHT22;18500;43.618;1.474;2022-10-18T08:51:16;21.40;1.00
31975;DHT22;18500;43.618;1.474;2022-10-18T08:54:03;21.40;1.00
31975;DHT22;18500;43.618;1.474;2022-10-18T08:56:30;21.40;1.00
31975;DHT22;18500;43.618;1.474;2022-10-18T08:58:56;21.40;1.00
31975;DHT22;18500;43.618;1.474;2022-10-18T09:06:34;21.60;1.00
31975;DHT22;18500;43.618;1.474;2022-10-18T09:17:16;21.80;1.00
31975;DHT22;18500;43.618;1.474;2022-10-18T09:22:53;22.10;1.00
31975;DHT22;18500;43.618;1.474;2022-10-18T09:25:30;22.10;1.00
31975;DHT22;18500;43.618;1.474;2022-10-18T09:31:10;22.10;1.00
31975;DHT22;18500;43.618;1.474;2022-10-18T09:33:58;22.10;1.00
31975;DHT22;18500;43.618;1.474;2022-10-18T09:36:34;22.20;1.00
31975;DHT22;18500;43.618;1.474;2022-10-18T09:39:27;22.30;1.00
31975;DHT22;18500;43.618;1.474;2022-10-18T09:41:59;22.40;1.00
31975;DHT22;18500;43.618;1.474;2022-10-18T09:44:34;22.40;1.00
31975;DHT22;18500;43.618;1.474;2022-10-18T09:47:21;22.40;1.00
31975;DHT22;18500;43.618;1.474;2022-10-18T09:49:55;22.60;1.00
31975;DHT22;18500;43.618;1.474;2022-10-18T09:52:27;22.80;1.00
31975;DHT22;18500;43.618;1.474;2022-10-18T09:54:58;22.80;1.00
31975;DHT22;18500;43.618;1.474;2022-10-18T09:59:59;22.80;1.00
31975;DHT22;18500;43.618;1.474;2022-10-18T10:02:25;22.80;1.00
31975;DHT22;18500;43.618;1.474;2022-10-18T10:04:52;23.00;1.00
31975;DHT22;18500;43.618;1.474;2022-10-18T10:07:26;23.00;1.00
31975;DHT22;18500;43.618;1.474;2022-10-18T10:10:18;23.10;1.00
31975;DHT22;18500;43.618;1.474;2022-10-18T10:12:45;23.00;1.00
31975;DHT22;18500;43.618;1.474;2022-10-18T10:15:22;23.10;1.00
31975;DHT22;18500;43.618;1.474;2022-10-18T10:18:41;23.20;1.00
31975;DHT22;18500;43.618;1.474;2022-10-18T10:20:47;23.30;1.00
31975;DHT22;18500;43.618;1.474;2022-10-18T10:25:58;23.40;1.00
31975;DHT22;18500;43.618;1.474;2022-10-18T10:28:42;23.40;1.00
31975;DHT22;18500;43.618;1.474;2022-10-18T10:36:49;23.50;1.00
31975;DHT22;18500;43.618;1.474;2022-10-18T10:39:17;23.60;1.00
31975;DHT22;18500;43.618;1.474;2022-10-18T10:41:54;23.70;1.00
31975;DHT22;18500;43.618;1.474;2022-10-18T10:44:23;23.90;1.00
31975;DHT22;18500;43.618;1.474;2022-10-18T10:46:50;23.80;1.00
31975;DHT22;18500;43.618;1.474;2022-10-18T10:50:07;23.90;1.00
31975;DHT22;18500;43.618;1.474;2022-10-18T10:52:18;24.00;1.00
31975;DHT22;18500;43.618;1.474;2022-10-18T10:54:45;24.10;1.00
31975;DHT22;18500;43.618;1.474;2022-10-18T10:59:54;24.00;1.00
31975;DHT22;18500;43.618;1.474;2022-10-18T11:02:25;24.30;1.00
31975;DHT22;18500;43.618;1.474;2022-10-18T11:04:55;24.20;1.00
31975;DHT22;18500;43.618;1.474;2022-10-18T11:07:32;24.20;1.00
31975;DHT22;18500;43.618;1.474;2022-10-18T11:12:46;24.50;1.00
31975;DHT22;18500;43.618;1.474;2022-10-18T11:15:28;24.60;1.00
31975;DHT22;18500;43.618;1.474;2022-10-18T11:20:39;24.60;1.00
31975;DHT22;18500;43.618;1.474;2022-10-18T11:23:14;24.60;1.00
31975;DHT22;18500;43.618;1.474;2022-10-18T11:28:28;24.70;1.00
31975;DHT22;18500;43.618;1.474;2022-10-18T12:01:26;25.20;1.00
31975;DHT22;18500;43.618;1.474;2022-10-18T12:04:11;25.30;1.00
31975;DHT22;18500;43.618;1.474;2022-10-18T12:06:41;25.20;1.00
31975;DHT22;18500;43.618;1.474;2022-10-18T12:09:30;25.40;1.00
31975;DHT22;18500;43.618;1.474;2022-10-18T12:12:01;25.50;1.00
31975;DHT22;18500;43.618;1.474;2022-10-18T12:14:55;25.70;1.00
31975;DHT22;18500;43.618;1.474;2022-10-18T12:17:49;27.70;1.00
31975;DHT22;18500;43.618;1.474;2022-10-18T12:23:10;31.80;1.00
31975;DHT22;18500;43.618;1.474;2022-10-18T12:25:39;32.40;1.00
31975;DHT22;18500;43.618;1.474;2022-10-18T12:28:55;33.00;1.00
31975;DHT22;18500;43.618;1.474;2022-10-18T12:33:45;34.10;1.00
31975;DHT22;18500;43.618;1.474;2022-10-18T12:39:00;34.00;1.00
31975;DHT22;18500;43.618;1.474;2022-10-18T12:41:29;34.20;1.00
31975;DHT22;18500;43.618;1.474;2022-10-18T12:44:03;34.10;1.00
31975;DHT22;18500;43.618;1.474;2022-10-18T12:46:53;33.70;1.00
31975;DHT22;18500;43.618;1.474;2022-10-18T12:49:36;34.00;1.00
31975;DHT22;18500;43.618;1.474;2022-10-18T12:52:18;34.00;1.00
31975;DHT22;18500;43.618;1.474;2022-10-18T12:57:27;30.90;1.00
31975;DHT22;18500;43.618;1.474;2022-10-18T13:13:51;27.30;1.00
31975;DHT22;18500;43.618;1.474;2022-10-18T13:28:33;26.80;1.00
31975;DHT22;18500;43.618;1.474;2022-10-18T13:31:02;26.80;1.00
31975;DHT22;18500;43.618;1.474;2022-10-18T13:33:34;26.70;1.00
31975;DHT22;18500;43.618;1.474;2022-10-18T13:57:47;26.70;1.00
31975;DHT22;18500;43.618;1.474;2022-10-18T14:03:48;26.60;1.00
31975;DHT22;18500;43.618;1.474;2022-10-18T14:06:23;26.60;1.00
31975;DHT22;18500;43.618;1.474;2022-10-18T14:11:47;26.40;1.00
31975;DHT22;18500;43.618;1.474;2022-10-18T14:14:15;26.30;1.00
31975;DHT22;18500;43.618;1.474;2022-10-18T14:22:15;26.30;1.00
31975;DHT22;18500;43.618;1.474;2022-10-18T14:24:48;26.40;1.00
31975;DHT22;18500;43.618;1.474;2022-10-18T14:27:31;26.30;1.00
31975;DHT22;18500;43.618;1.474;2022-10-18T14:32:51;26.20;1.00
31975;DHT22;18500;43.618;1.474;2022-10-18T14:35:28;26.00;1.00
31975;DHT22;18500;43.618;1.474;2022-10-18T14:37:54;26.00;1.00
31975;DHT22;18500;43.618;1.474;2022-10-18T14:40:26;25.90;1.00
31975;DHT22;18500;43.618;1.474;2022-10-18T14:42:52;26.00;1.00
31975;DHT22;18500;43.618;1.474;2022-10-18T14:45:22;25.90;1.00
31975;DHT22;18500;43.618;1.474;2022-10-18T14:47:48;25.80;1.00
31975;DHT22;18500;43.618;1.474;2022-10-18T14:50:20;25.70;1.00
31975;DHT22;18500;43.618;1.474;2022-10-18T14:52:46;25.70;1.00
31975;DHT22;18500;43.618;1.474;2022-10-18T14:55:24;25.60;1.00
31975;DHT22;18500;43.618;1.474;2022-10-18T14:57:50;25.60;1.00
31975;DHT22;18500;43.618;1.474;2022-10-18T15:00:23;25.40;1.00
31975;DHT22;18500;43.618;1.474;2022-10-18T15:02:50;25.30;1.00
31975;DHT22;18500;43.618;1.474;2022-10-18T15:05:20;25.20;1.00
31975;DHT22;18500;43.618;1.474;2022-10-18T15:07:47;25.20;1.00
31975;DHT22;18500;43.618;1.474;2022-10-18T15:10:21;25.30;1.00
31975;DHT22;18500;43.618;1.474;2022-10-18T15:12:48;25.20;1.00
31975;DHT22;18500;43.618;1.474;2022-10-18T15:15:26;25.20;1.00
31975;DHT22;18500;43.618;1.474;2022-10-18T15:17:52;25.10;1.00
31975;DHT22;18500;43.618;1.474;2022-10-18T15:20:25;25.10;1.00
31975;DHT22;18500;43.618;1.474;2022-10-18T15:22:52;25.10;1.00
31975;DHT22;18500;43.618;1.474;2022-10-18T15:25:24;25.10;1.00
31975;DHT22;18500;43.618;1.474;2022-10-18T15:27:55;25.00;1.00
31975;DHT22;18500;43.618;1.474;2022-10-18T15:30:25;25.00;1.00
31975;DHT22;18500;43.618;1.474;2022-10-18T15:33:04;24.90;1.00
31975;DHT22;18500;43.618;1.474;2022-10-18T15:35:35;24.80;1.00
31975;DHT22;18500;43.618;1.474;2022-10-18T15:38:23;25.20;1.00
31975;DHT22;18500;43.618;1.474;2022-10-18T15:40:49;25.10;1.00
31975;DHT22;18500;43.618;1.474;2022-10-18T15:46:01;26.10;1.00
31975;DHT22;18500;43.618;1.474;2022-10-18T15:48:37;25.70;1.00
31975;DHT22;18500;43.618;1.474;2022-10-18T15:51:35;25.20;1.00
31975;DHT22;18500;43.618;1.474;2022-10-18T15:53:53;24.90;1.00
31975;DHT22;18500;43.618;1.474;2022-10-18T15:56:35;24.60;1.00
31975;DHT22;18500;43.618;1.474;2022-10-18T15:59:20;25.50;1.00
31975;DHT22;18500;43.618;1.474;2022-10-18T16:01:46;24.90;1.00
31975;DHT22;18500;43.618;1.474;2022-10-18T16:04:32;24.50;1.00
31975;DHT22;18500;43.618;1.474;2022-10-18T16:06:59;24.20;1.00
31975;DHT22;18500;43.618;1.474;2022-10-18T16:09:27;24.00;1.00
31975;DHT22;18500;43.618;1.474;2022-10-18T16:11:53;23.70;1.00
31975;DHT22;18500;43.618;1.474;2022-10-18T16:14:20;23.50;1.00
31975;DHT22;18500;43.618;1.474;2022-10-18T16:16:47;23.30;1.00
31975;DHT22;18500;43.618;1.474;2022-10-18T16:19:15;23.10;1.00
31975;DHT22;18500;43.618;1.474;2022-10-18T16:21:43;23.00;1.00
31975;DHT22;18500;43.618;1.474;2022-10-18T16:24:09;22.90;1.00
31975;DHT22;18500;43.618;1.474;2022-10-18T16:26:35;22.80;1.00
31975;DHT22;18500;43.618;1.474;2022-10-18T16:29:03;22.70;1.00
31975;DHT22;18500;43.618;1.474;2022-10-18T16:31:31;22.60;1.00
31975;DHT22;18500;43.618;1.474;2022-10-18T16:33:58;22.50;1.00
31975;DHT22;18500;43.618;1.474;2022-10-18T16:36:26;22.40;1.00
31975;DHT22;18500;43.618;1.474;2022-10-18T16:38:54;22.30;1.00
31975;DHT22;18500;43.618;1.474;2022-10-18T16:41:20;22.20;1.00
31975;DHT22;18500;43.618;1.474;2022-10-18T16:43:47;22.10;1.00
31975;DHT22;18500;43.618;1.474;2022-10-18T16:46:16;22.10;1.00
31975;DHT22;18500;43.618;1.474;2022-10-18T16:48:42;22.00;1.00
31975;DHT22;18500;43.618;1.474;2022-10-18T16:51:09;21.90;1.00
31975;DHT22;18500;43.618;1.474;2022-10-18T16:53:35;21.90;1.00
31975;DHT22;18500;43.618;1.474;2022-10-18T16:56:03;21.80;1.00
31975;DHT22;18500;43.618;1.474;2022-10-18T16:58:31;21.70;1.00
31975;DHT22;18500;43.618;1.474;2022-10-18T17:00:57;21.70;1.00
31975;DHT22;18500;43.618;1.474;2022-10-18T17:03:24;21.60;1.00
31975;DHT22;18500;43.618;1.474;2022-10-18T17:05:50;21.60;1.00
31975;DHT22;18500;43.618;1.474;2022-10-18T17:08:23;21.50;1.00
31975;DHT22;18500;43.618;1.474;2022-10-18T17:10:50;21.60;1.00
31975;DHT22;18500;43.618;1.474;2022-10-18T17:13:17;21.50;1.00
31975;DHT22;18500;43.618;1.474;2022-10-18T17:15:44;21.50;1.00
31975;DHT22;18500;43.618;1.474;2022-10-18T17:18:16;21.40;1.00
31975;DHT22;18500;43.618;1.474;2022-10-18T17:20:42;21.30;1.00
31975;DHT22;18500;43.618;1.474;2022-10-18T17:23:08;21.20;1.00
31975;DHT22;18500;43.618;1.474;2022-10-18T17:25:36;21.10;1.00
31975;DHT22;18500;43.618;1.474;2022-10-18T17:28:03;21.10;1.00
31975;DHT22;18500;43.618;1.474;2022-10-18T17:30:28;21.10;1.00
31975;DHT22;18500;43.618;1.474;2022-10-18T17:32:54;21.00;1.00
31975;DHT22;18500;43.618;1.474;2022-10-18T17:35:20;21.00;1.00
31975;DHT22;18500;43.618;1.474;2022-10-18T17:37:47;21.00;1.00
31975;DHT22;18500;43.618;1.474;2022-10-18T17:40:13;21.00;1.00
31975;DHT22;18500;43.618;1.474;2022-10-18T17:42:39;20.90;1.00
31975;DHT22;18500;43.618;1.474;2022-10-18T17:45:05;20.90;1.00
31975;DHT22;18500;43.618;1.474;2022-10-18T17:47:31;20.90;1.00
31975;DHT22;18500;43.618;1.474;2022-10-18T17:49:56;20.80;1.00
31975;DHT22;18500;43.618;1.474;2022-10-18T17:52:22;20.90;1.00
31975;DHT22;18500;43.618;1.474;2022-10-18T17:54:48;20.80;1.00
31975;DHT22;18500;43.618;1.474;2022-10-18T17:57:14;20.70;1.00
31975;DHT22;18500;43.618;1.474;2022-10-18T17:59:40;20.80;1.00
31975;DHT22;18500;43.618;1.474;2022-10-18T18:02:06;20.70;1.00
31975;DHT22;18500;43.618;1.474;2022-10-18T18:04:31;20.60;1.00
31975;DHT22;18500;43.618;1.474;2022-10-18T18:06:57;20.60;1.00
31975;DHT22;18500;43.618;1.474;2022-10-18T18:09:24;20.60;1.00
31975;DHT22;18500;43.618;1.474;2022-10-18T18:11:51;20.60;1.00
31975;DHT22;18500;43.618;1.474;2022-10-18T18:14:18;20.50;1.00
31975;DHT22;18500;43.618;1.474;2022-10-18T18:16:45;20.50;1.00
31975;DHT22;18500;43.618;1.474;2022-10-18T18:19:12;20.50;1.00
31975;DHT22;18500;43.618;1.474;2022-10-18T18:21:39;20.40;1.00
31975;DHT22;18500;43.618;1.474;2022-10-18T18:24:05;20.40;1.00
31975;DHT22;18500;43.618;1.474;2022-10-18T18:26:32;20.40;1.00
31975;DHT22;18500;43.618;1.474;2022-10-18T18:28:58;20.40;1.00
31975;DHT22;18500;43.618;1.474;2022-10-18T18:31:24;20.30;1.00
31975;DHT22;18500;43.618;1.474;2022-10-18T18:33:52;20.30;1.00
31975;DHT22;18500;43.618;1.474;2022-10-18T18:36:19;20.30;1.00
31975;DHT22;18500;43.618;1.474;2022-10-18T18:38:45;20.20;1.00
31975;DHT22;18500;43.618;1.474;2022-10-18T18:41:19;20.20;1.00
31975;DHT22;18500;43.618;1.474;2022-10-18T18:43:56;20.20;1.00
31975;DHT22;18500;43.618;1.474;2022-10-18T18:46:23;20.20;1.00
31975;DHT22;18500;43.618;1.474;2022-10-18T18:48:49;20.20;1.00
31975;DHT22;18500;43.618;1.474;2022-10-18T18:51:17;20.20;1.00
31975;DHT22;18500;43.618;1.474;2022-10-18T18:53:44;20.10;1.00
31975;DHT22;18500;43.618;1.474;2022-10-18T18:56:13;20.00;1.00
31975;DHT22;18500;43.618;1.474;2022-10-18T18:58:40;20.10;1.00
31975;DHT22;18500;43.618;1.474;2022-10-18T19:01:13;20.10;1.00
31975;DHT22;18500;43.618;1.474;2022-10-18T19:03:42;20.00;1.00
31975;DHT22;18500;43.618;1.474;2022-10-18T19:06:18;20.00;1.00
31975;DHT22;18500;43.618;1.474;2022-10-18T19:08:45;20.00;1.00
31975;DHT22;18500;43.618;1.474;2022-10-18T19:11:19;19.90;1.00
31975;DHT22;18500;43.618;1.474;2022-10-18T19:13:46;19.90;1.00
31975;DHT22;18500;43.618;1.474;2022-10-18T19:18:57;19.80;1.00
31975;DHT22;18500;43.618;1.474;2022-10-18T19:21:25;19.90;1.00
31975;DHT22;18500;43.618;1.474;2022-10-18T19:23:51;19.80;1.00
31975;DHT22;18500;43.618;1.474;2022-10-18T19:26:29;19.80;1.00
31975;DHT22;18500;43.618;1.474;2022-10-18T19:29:00;19.80;1.00
31975;DHT22;18500;43.618;1.474;2022-10-18T19:31:26;19.80;1.00
31975;DHT22;18500;43.618;1.474;2022-10-18T19:33:51;19.80;1.00
31975;DHT22;18500;43.618;1.474;2022-10-18T19:36:17;19.80;1.00
31975;DHT22;18500;43.618;1.474;2022-10-18T19:38:43;19.70;1.00
31975;DHT22;18500;43.618;1.474;2022-10-18T19:41:08;19.70;1.00
31975;DHT22;18500;43.618;1.474;2022-10-18T19:43:35;19.70;1.00
31975;DHT22;18500;43.618;1.474;2022-10-18T19:46:02;19.70;1.00
31975;DHT22;18500;43.618;1.474;2022-10-18T19:48:28;19.60;1.00
31975;DHT22;18500;43.618;1.474;2022-10-18T19:50:53;19.60;1.00
31975;DHT22;18500;43.618;1.474;2022-10-18T19:53:19;19.60;1.00
31975;DHT22;18500;43.618;1.474;2022-10-18T19:55:45;19.60;1.00
31975;DHT22;18500;43.618;1.474;2022-10-18T19:58:10;19.60;1.00
31975;DHT22;18500;43.618;1.474;2022-10-18T20:00:36;19.70;1.00
31975;DHT22;18500;43.618;1.474;2022-10-18T20:03:01;19.70;1.00
31975;DHT22;18500;43.618;1.474;2022-10-18T20:05:27;19.60;1.00
31975;DHT22;18500;43.618;1.474;2022-10-18T20:07:53;19.70;1.00
31975;DHT22;18500;43.618;1.474;2022-10-18T20:10:19;19.70;1.00
31975;DHT22;18500;43.618;1.474;2022-10-18T20:12:44;19.60;1.00
31975;DHT22;18500;43.618;1.474;2022-10-18T20:15:10;19.60;1.00
31975;DHT22;18500;43.618;1.474;2022-10-18T20:17:36;19.60;1.00
31975;DHT22;18500;43.618;1.474;2022-10-18T20:20:02;19.60;1.00
31975;DHT22;18500;43.618;1.474;2022-10-18T20:22:30;19.60;1.00
31975;DHT22;18500;43.618;1.474;2022-10-18T20:24:56;19.60;1.00
31975;DHT22;18500;43.618;1.474;2022-10-18T20:27:22;19.60;1.00
31975;DHT22;18500;43.618;1.474;2022-10-18T20:29:48;19.70;1.00
31975;DHT22;18500;43.618;1.474;2022-10-18T20:32:14;19.60;1.00
31975;DHT22;18500;43.618;1.474;2022-10-18T20:34:39;19.60;1.00
31975;DHT22;18500;43.618;1.474;2022-10-18T20:37:05;19.60;1.00
31975;DHT22;18500;43.618;1.474;2022-10-18T20:39:31;19.50;1.00
31975;DHT22;18500;43.618;1.474;2022-10-18T20:41:58;19.60;1.00
31975;DHT22;18500;43.618;1.474;2022-10-18T20:44:23;19.50;1.00
31975;DHT22;18500;43.618;1.474;2022-10-18T20:46:51;19.50;1.00
31975;DHT22;18500;43.618;1.474;2022-10-18T20:49:17;19.50;1.00
31975;DHT22;18500;43.618;1.474;2022-10-18T20:51:43;19.50;1.00
31975;DHT22;18500;43.618;1.474;2022-10-18T20:54:10;19.50;1.00
31975;DHT22;18500;43.618;1.474;2022-10-18T20:56:36;19.40;1.00
31975;DHT22;18500;43.618;1.474;2022-10-18T20:59:04;19.40;1.00
31975;DHT22;18500;43.618;1.474;2022-10-18T21:01:32;19.50;1.00
31975;DHT22;18500;43.618;1.474;2022-10-18T21:04:04;19.50;1.00
31975;DHT22;18500;43.618;1.474;2022-10-18T21:06:43;19.50;1.00
31975;DHT22;18500;43.618;1.474;2022-10-18T21:09:16;19.50;1.00
31975;DHT22;18500;43.618;1.474;2022-10-18T21:11:45;19.50;1.00
31975;DHT22;18500;43.618;1.474;2022-10-18T21:14:13;19.50;1.00
31975;DHT22;18500;43.618;1.474;2022-10-18T21:16:40;19.50;1.00
31975;DHT22;18500;43.618;1.474;2022-10-18T21:19:17;19.50;1.00
31975;DHT22;18500;43.618;1.474;2022-10-18T21:21:45;19.50;1.00
31975;DHT22;18500;43.618;1.474;2022-10-18T21:24:12;19.50;1.00
31975;DHT22;18500;43.618;1.474;2022-10-18T21:26:38;19.40;1.00
31975;DHT22;18500;43.618;1.474;2022-10-18T21:29:04;19.40;1.00
31975;DHT22;18500;43.618;1.474;2022-10-18T21:31:33;19.40;1.00
31975;DHT22;18500;43.618;1.474;2022-10-18T21:34:10;19.40;1.00
31975;DHT22;18500;43.618;1.474;2022-10-18T21:36:41;19.40;1.00
31975;DHT22;18500;43.618;1.474;2022-10-18T21:39:11;19.40;1.00
31975;DHT22;18500;43.618;1.474;2022-10-18T21:41:37;19.40;1.00
31975;DHT22;18500;43.618;1.474;2022-10-18T21:44:03;19.40;1.00
31975;DHT22;18500;43.618;1.474;2022-10-18T21:46:29;19.40;1.00
31975;DHT22;18500;43.618;1.474;2022-10-18T21:48:56;19.40;1.00
31975;DHT22;18500;43.618;1.474;2022-10-18T21:51:25;19.40;1.00
31975;DHT22;18500;43.618;1.474;2022-10-18T21:53:53;19.30;1.00
31975;DHT22;18500;43.618;1.474;2022-10-18T21:56:24;19.40;1.00
31975;DHT22;18500;43.618;1.474;2022-10-18T21:58:50;19.40;1.00
31975;DHT22;18500;43.618;1.474;2022-10-18T22:03:48;19.40;1.00
31975;DHT22;18500;43.618;1.474;2022-10-18T22:06:15;19.30;1.00
